sensor_id;sensor_type;location;lat;lon;timestamp;pressure;altitude;pressure_sealevel;temperature;humidity
13836;BME280;6988;52.614;13.500;2023-02-17T00:03:14;54653.97;;;-143.77;71.36
13836;BME280;6988;52.614;13.500;2023-02-17T00:08:06;54635.50;;;-143.77;72.19
13836;BME280;6988;52.614;13.500;2023-02-17T00:12:57;54656.03;;;-143.77;74.06
13836;BME280;6988;52.614;13.500;2023-02-17T00:17:49;54647.81;;;-143.77;75.21
13836;BME280;6988;52.614;13.500;2023-02-17T00:22:43;54633.44;;;-143.77;76.52
13836;BME280;6988;52.614;13.500;2023-02-17T00:27:34;54676.53;;;-143.77;77.42
13836;BME280;6988;52.614;13.500;2023-02-17T00:32:26;54672.44;;;-143.77;78.54
13836;BME280;6988;52.614;13.500;2023-02-17T00:37:18;54666.28;;;-143.77;79.02
13836;BME280;6988;52.614;13.500;2023-02-17T00:42:11;54656.03;;;-143.77;79.38
13836;BME280;6988;52.614;13.500;2023-02-17T00:47:04;54670.38;;;-143.77;80.00
13836;BME280;6988;52.614;13.500;2023-02-17T00:51:58;54742.22;;;-143.77;80.57
13836;BME280;6988;52.614;13.500;2023-02-17T00:56:51;54701.16;;;-143.77;80.76
13836;BME280;6988;52.614;13.500;2023-02-17T01:01:44;54670.38;;;-143.77;80.86
13836;BME280;6988;52.614;13.500;2023-02-17T01:06:39;54695.00;;;-143.77;80.94
13836;BME280;6988;52.614;13.500;2023-02-17T01:11:33;54664.22;;;-143.77;81.13
13836;BME280;6988;52.614;13.500;2023-02-17T01:16:27;54649.88;;;-143.77;81.20
13836;BME280;6988;52.614;13.500;2023-02-17T01:21:27;54672.44;;;-143.77;81.16
13836;BME280;6988;52.614;13.500;2023-02-17T01:26:23;54692.97;;;-143.77;81.07
13836;BME280;6988;52.614;13.500;2023-02-17T01:31:18;54668.34;;;-143.77;81.41
13836;BME280;6988;52.614;13.500;2023-02-17T01:36:13;54676.53;;;-143.77;81.48
13836;BME280;6988;52.614;13.500;2023-02-17T01:41:09;54688.84;;;-143.77;81.44
13836;BME280;6988;52.614;13.500;2023-02-17T01:46:04;54684.75;;;-143.77;81.71
13836;BME280;6988;52.614;13.500;2023-02-17T01:51:05;54676.53;;;-143.77;81.40
13836;BME280;6988;52.614;13.500;2023-02-17T01:55:58;54656.03;;;-143.77;81.54
13836;BME280;6988;52.614;13.500;2023-02-17T02:00:54;54645.75;;;-143.77;81.55
13836;BME280;6988;52.614;13.500;2023-02-17T02:05:48;54668.34;;;-143.77;82.16
13836;BME280;6988;52.614;13.500;2023-02-17T02:10:41;54684.75;;;-143.77;82.42
13836;BME280;6988;52.614;13.500;2023-02-17T02:15:39;54676.53;;;-143.77;83.59
13836;BME280;6988;52.614;13.500;2023-02-17T02:21:25;54670.38;;;-143.77;84.04
13836;BME280;6988;52.614;13.500;2023-02-17T02:37:23;54670.38;;;-143.77;87.13
13836;BME280;6988;52.614;13.500;2023-02-17T02:42:21;54686.81;;;-143.77;87.16
13836;BME280;6988;52.614;13.500;2023-02-17T02:47:42;54717.59;;;-143.77;87.39
13836;BME280;6988;52.614;13.500;2023-02-17T02:52:51;54682.69;;;-143.77;87.56
13836;BME280;6988;52.614;13.500;2023-02-17T02:57:55;54699.13;;;-143.77;87.94
13836;BME280;6988;52.614;13.500;2023-02-17T03:02:56;54692.97;;;-143.77;87.95
13836;BME280;6988;52.614;13.500;2023-02-17T03:07:58;54668.34;;;-143.77;88.84
13836;BME280;6988;52.614;13.500;2023-02-17T03:12:51;54699.13;;;-143.77;88.95
13836;BME280;6988;52.614;13.500;2023-02-17T03:17:43;54676.53;;;-143.77;89.52
13836;BME280;6988;52.614;13.500;2023-02-17T03:22:39;54688.84;;;-143.77;89.73
13836;BME280;6988;52.614;13.500;2023-02-17T03:27:33;54705.28;;;-143.77;89.57
13836;BME280;6988;52.614;13.500;2023-02-17T03:32:27;54682.69;;;-143.77;89.65
13836;BME280;6988;52.614;13.500;2023-02-17T03:37:19;54672.44;;;-143.77;89.65
13836;BME280;6988;52.614;13.500;2023-02-17T03:42:11;54674.50;;;-143.77;89.89
13836;BME280;6988;52.614;13.500;2023-02-17T03:47:05;54695.00;;;-143.77;90.23
13836;BME280;6988;52.614;13.500;2023-02-17T03:51:57;54695.00;;;-143.77;90.60
13836;BME280;6988;52.614;13.500;2023-02-17T03:56:49;54709.38;;;-143.77;90.45
13836;BME280;6988;52.614;13.500;2023-02-17T04:01:41;54651.91;;;-143.77;90.76
13836;BME280;6988;52.614;13.500;2023-02-17T04:06:35;54701.16;;;-143.77;91.12
13836;BME280;6988;52.614;13.500;2023-02-17T04:11:27;54692.97;;;-143.77;91.08
13836;BME280;6988;52.614;13.500;2023-02-17T04:16:19;54672.44;;;-143.77;91.04
13836;BME280;6988;52.614;13.500;2023-02-17T04:21:11;54688.84;;;-143.77;91.52
13836;BME280;6988;52.614;13.500;2023-02-17T04:26:06;54682.69;;;-143.77;92.02
13836;BME280;6988;52.614;13.500;2023-02-17T04:30:59;54713.47;;;-143.77;91.99
13836;BME280;6988;52.614;13.500;2023-02-17T04:35:51;54686.81;;;-143.77;92.34
13836;BME280;6988;52.614;13.500;2023-02-17T04:40:43;54715.53;;;-143.77;92.27
13836;BME280;6988;52.614;13.500;2023-02-17T04:45:37;54651.91;;;-143.77;92.85
13836;BME280;6988;52.614;13.500;2023-02-17T04:50:30;54686.81;;;-143.77;92.64
13836;BME280;6988;52.614;13.500;2023-02-17T04:55:21;54639.59;;;-143.77;92.56
13836;BME280;6988;52.614;13.500;2023-02-17T05:00:14;54656.03;;;-143.77;92.93
13836;BME280;6988;52.614;13.500;2023-02-17T05:05:07;54651.91;;;-143.77;93.03
13836;BME280;6988;52.614;13.500;2023-02-17T05:09:59;54664.22;;;-143.77;92.90
13836;BME280;6988;52.614;13.500;2023-02-17T05:14:51;54656.03;;;-143.77;93.34
13836;BME280;6988;52.614;13.500;2023-02-17T05:19:43;54684.75;;;-143.77;92.98
13836;BME280;6988;52.614;13.500;2023-02-17T05:24:37;54660.13;;;-143.77;93.01
13836;BME280;6988;52.614;13.500;2023-02-17T05:29:28;54635.50;;;-143.77;93.01
13836;BME280;6988;52.614;13.500;2023-02-17T05:34:20;54653.97;;;-143.77;92.62
13836;BME280;6988;52.614;13.500;2023-02-17T05:39:12;54676.53;;;-143.77;92.32
13836;BME280;6988;52.614;13.500;2023-02-17T05:44:06;54651.91;;;-143.77;92.19
13836;BME280;6988;52.614;13.500;2023-02-17T05:48:58;54647.81;;;-143.77;92.08
13836;BME280;6988;52.614;13.500;2023-02-17T05:53:50;54672.44;;;-143.77;91.89
13836;BME280;6988;52.614;13.500;2023-02-17T05:58:41;54674.50;;;-143.77;92.04
13836;BME280;6988;52.614;13.500;2023-02-17T06:03:35;54684.75;;;-143.77;92.16
13836;BME280;6988;52.614;13.500;2023-02-17T06:08:27;54668.34;;;-143.77;92.36
13836;BME280;6988;52.614;13.500;2023-02-17T06:13:19;54651.91;;;-143.77;92.38
13836;BME280;6988;52.614;13.500;2023-02-17T06:18:12;54662.19;;;-143.77;92.10
13836;BME280;6988;52.614;13.500;2023-02-17T06:23:05;54668.34;;;-143.77;92.23
13836;BME280;6988;52.614;13.500;2023-02-17T06:27:57;54614.97;;;-143.77;92.00
13836;BME280;6988;52.614;13.500;2023-02-17T06:32:50;54635.50;;;-143.77;92.01
13836;BME280;6988;52.614;13.500;2023-02-17T06:37:42;54680.66;;;-143.77;91.67
13836;BME280;6988;52.614;13.500;2023-02-17T06:42:35;54658.06;;;-143.77;91.70
13836;BME280;6988;52.614;13.500;2023-02-17T06:47:27;54672.44;;;-143.77;91.67
13836;BME280;6988;52.614;13.500;2023-02-17T06:52:19;54643.72;;;-143.77;91.15
13836;BME280;6988;52.614;13.500;2023-02-17T06:57:11;54682.69;;;-143.77;91.19
13836;BME280;6988;52.614;13.500;2023-02-17T07:02:05;54656.03;;;-143.77;90.90
13836;BME280;6988;52.614;13.500;2023-02-17T07:06:57;54627.28;;;-143.77;90.73
13836;BME280;6988;52.614;13.500;2023-02-17T07:11:49;54651.91;;;-143.77;90.45
13836;BME280;6988;52.614;13.500;2023-02-17T07:16:41;54656.03;;;-143.77;90.08
13836;BME280;6988;52.614;13.500;2023-02-17T07:21:34;54623.19;;;-143.77;89.59
13836;BME280;6988;52.614;13.500;2023-02-17T07:26:26;54623.19;;;-143.77;89.58
13836;BME280;6988;52.614;13.500;2023-02-17T07:31:18;54656.03;;;-143.77;89.13
13836;BME280;6988;52.614;13.500;2023-02-17T07:36:13;54647.81;;;-143.77;89.06
13836;BME280;6988;52.614;13.500;2023-02-17T07:41:09;54631.41;;;-143.77;89.15
13836;BME280;6988;52.614;13.500;2023-02-17T07:46:03;54612.94;;;-143.77;88.91
13836;BME280;6988;52.614;13.500;2023-02-17T07:50:55;54653.97;;;-143.77;88.32
13836;BME280;6988;52.614;13.500;2023-02-17T07:55:47;54619.09;;;-143.77;87.99
13836;BME280;6988;52.614;13.500;2023-02-17T08:00:40;54580.09;;;-143.77;87.73
13836;BME280;6988;52.614;13.500;2023-02-17T08:05:32;54578.03;;;-143.77;87.39
13836;BME280;6988;52.614;13.500;2023-02-17T08:10:24;54645.75;;;-143.77;87.06
13836;BME280;6988;52.614;13.500;2023-02-17T08:15:33;54623.19;;;-143.77;87.28
13836;BME280;6988;52.614;13.500;2023-02-17T08:20:27;54598.56;;;-143.77;87.14
13836;BME280;6988;52.614;13.500;2023-02-17T08:25:18;54606.78;;;-143.77;86.91
13836;BME280;6988;52.614;13.500;2023-02-17T08:30:11;54604.72;;;-143.77;86.58
13836;BME280;6988;52.614;13.500;2023-02-17T08:35:04;54606.78;;;-143.77;86.76
13836;BME280;6988;52.614;13.500;2023-02-17T08:39:58;54561.63;;;-143.77;86.73
13836;BME280;6988;52.614;13.500;2023-02-17T08:44:50;54576.00;;;-143.77;86.65
13836;BME280;6988;52.614;13.500;2023-02-17T08:49:42;54576.00;;;-143.77;87.05
13836;BME280;6988;52.614;13.500;2023-02-17T08:54:34;54582.16;;;-143.77;87.36
13836;BME280;6988;52.614;13.500;2023-02-17T08:59:27;54592.41;;;-143.77;87.46
13836;BME280;6988;52.614;13.500;2023-02-17T09:04:19;54557.53;;;-143.77;87.93
13836;BME280;6988;52.614;13.500;2023-02-17T09:09:14;54565.72;;;-143.77;88.29
13836;BME280;6988;52.614;13.500;2023-02-17T09:14:07;54602.66;;;-143.77;88.17
13836;BME280;6988;52.614;13.500;2023-02-17T09:19:01;54584.19;;;-143.77;88.29
13836;BME280;6988;52.614;13.500;2023-02-17T09:23:53;54557.53;;;-143.77;88.76
13836;BME280;6988;52.614;13.500;2023-02-17T09:28:45;54569.84;;;-143.77;88.92
13836;BME280;6988;52.614;13.500;2023-02-17T09:33:37;54580.09;;;-143.77;89.22
13836;BME280;6988;52.614;13.500;2023-02-17T09:38:30;54580.09;;;-143.77;89.32
13836;BME280;6988;52.614;13.500;2023-02-17T09:43:27;54582.16;;;-143.77;89.24
13836;BME280;6988;52.614;13.500;2023-02-17T09:48:24;54621.13;;;-143.77;89.24
13836;BME280;6988;52.614;13.500;2023-02-17T09:53:25;54567.78;;;-143.77;89.52
13836;BME280;6988;52.614;13.500;2023-02-17T09:58:23;54592.41;;;-143.77;89.62
13836;BME280;6988;52.614;13.500;2023-02-17T10:03:23;54590.34;;;-143.77;90.00
13836;BME280;6988;52.614;13.500;2023-02-17T10:08:21;54606.78;;;-143.77;89.82
13836;BME280;6988;52.614;13.500;2023-02-17T10:13:20;54545.22;;;-143.77;90.13
13836;BME280;6988;52.614;13.500;2023-02-17T10:18:19;54539.06;;;-143.77;90.57
13836;BME280;6988;52.614;13.500;2023-02-17T10:23:20;54588.31;;;-143.77;90.74
13836;BME280;6988;52.614;13.500;2023-02-17T10:28:23;54565.72;;;-143.77;91.11
13836;BME280;6988;52.614;13.500;2023-02-17T10:33:32;54578.03;;;-143.77;91.31
13836;BME280;6988;52.614;13.500;2023-02-17T10:38:46;54571.88;;;-143.77;91.27
13836;BME280;6988;52.614;13.500;2023-02-17T10:43:43;54559.56;;;-143.77;91.01
13836;BME280;6988;52.614;13.500;2023-02-17T10:48:40;54578.03;;;-143.77;91.10
13836;BME280;6988;52.614;13.500;2023-02-17T10:53:38;54569.84;;;-143.77;90.84
13836;BME280;6988;52.614;13.500;2023-02-17T10:58:47;54586.25;;;-143.77;90.54
13836;BME280;6988;52.614;13.500;2023-02-17T11:03:42;54545.22;;;-143.77;90.20
13836;BME280;6988;52.614;13.500;2023-02-17T11:08:39;54555.47;;;-143.77;89.65
13836;BME280;6988;52.614;13.500;2023-02-17T11:13:39;54557.53;;;-143.77;89.45
13836;BME280;6988;52.614;13.500;2023-02-17T11:18:38;54539.06;;;-143.77;89.13
13836;BME280;6988;52.614;13.500;2023-02-17T11:23:34;54610.88;;;-143.77;88.99
13836;BME280;6988;52.614;13.500;2023-02-17T11:28:27;54565.72;;;-143.77;88.69
13836;BME280;6988;52.614;13.500;2023-02-17T11:33:22;54530.84;;;-143.77;88.39
13836;BME280;6988;52.614;13.500;2023-02-17T11:38:17;54557.53;;;-143.77;88.06
13836;BME280;6988;52.614;13.500;2023-02-17T11:43:16;54565.72;;;-143.77;87.82
13836;BME280;6988;52.614;13.500;2023-02-17T11:48:34;54586.25;;;-143.77;87.06
13836;BME280;6988;52.614;13.500;2023-02-17T11:53:46;54545.22;;;-143.77;87.12
13836;BME280;6988;52.614;13.500;2023-02-17T11:59:07;54580.09;;;-143.77;86.75
13836;BME280;6988;52.614;13.500;2023-02-17T12:04:23;54518.53;;;-143.77;86.33
13836;BME280;6988;52.614;13.500;2023-02-17T12:09:25;54520.59;;;-143.77;85.92
13836;BME280;6988;52.614;13.500;2023-02-17T12:14:54;54532.91;;;-143.77;85.55
13836;BME280;6988;52.614;13.500;2023-02-17T12:20:03;54530.84;;;-143.77;85.09
13836;BME280;6988;52.614;13.500;2023-02-17T12:25:23;54502.13;;;-143.77;84.79
13836;BME280;6988;52.614;13.500;2023-02-17T12:30:32;54512.38;;;-143.77;84.38
13836;BME280;6988;52.614;13.500;2023-02-17T12:35:33;54534.94;;;-143.77;84.22
13836;BME280;6988;52.614;13.500;2023-02-17T12:40:37;54532.91;;;-143.77;84.03
13836;BME280;6988;52.614;13.500;2023-02-17T12:45:38;54537.00;;;-143.77;83.16
13836;BME280;6988;52.614;13.500;2023-02-17T12:50:36;54491.88;;;-143.77;82.77
13836;BME280;6988;52.614;13.500;2023-02-17T12:55:35;54479.56;;;-143.77;82.02
13836;BME280;6988;52.614;13.500;2023-02-17T13:00:38;54485.72;;;-143.77;81.49
13836;BME280;6988;52.614;13.500;2023-02-17T13:05:39;54491.88;;;-143.77;81.29
13836;BME280;6988;52.614;13.500;2023-02-17T13:10:35;54481.59;;;-143.77;81.16
13836;BME280;6988;52.614;13.500;2023-02-17T13:15:35;54477.50;;;-143.77;80.29
13836;BME280;6988;52.614;13.500;2023-02-17T13:20:40;54491.88;;;-143.77;80.08
13836;BME280;6988;52.614;13.500;2023-02-17T13:25:35;54456.97;;;-143.77;79.88
13836;BME280;6988;52.614;13.500;2023-02-17T13:30:38;54465.19;;;-143.77;79.54
13836;BME280;6988;52.614;13.500;2023-02-17T13:35:33;54461.09;;;-143.77;79.09
13836;BME280;6988;52.614;13.500;2023-02-17T13:40:38;54454.94;;;-143.77;79.10
13836;BME280;6988;52.614;13.500;2023-02-17T13:45:39;54430.31;;;-143.77;79.15
13836;BME280;6988;52.614;13.500;2023-02-17T13:50:34;54454.94;;;-143.77;79.04
13836;BME280;6988;52.614;13.500;2023-02-17T13:55:26;54454.94;;;-143.77;79.34
13836;BME280;6988;52.614;13.500;2023-02-17T14:00:22;54452.88;;;-143.77;79.47
13836;BME280;6988;52.614;13.500;2023-02-17T14:05:20;54434.41;;;-143.77;79.80
13836;BME280;6988;52.614;13.500;2023-02-17T14:10:23;54459.03;;;-143.77;79.49
13836;BME280;6988;52.614;13.500;2023-02-17T14:15:17;54456.97;;;-143.77;79.89
13836;BME280;6988;52.614;13.500;2023-02-17T14:20:28;54442.63;;;-143.77;80.73
13836;BME280;6988;52.614;13.500;2023-02-17T14:25:27;54479.56;;;-143.77;81.47
13836;BME280;6988;52.614;13.500;2023-02-17T14:30:29;54438.50;;;-143.77;81.72
13836;BME280;6988;52.614;13.500;2023-02-17T14:35:24;54438.50;;;-143.77;81.75
13836;BME280;6988;52.614;13.500;2023-02-17T14:40:19;54446.72;;;-143.77;82.24
13836;BME280;6988;52.614;13.500;2023-02-17T14:45:11;54444.66;;;-143.77;83.34
13836;BME280;6988;52.614;13.500;2023-02-17T14:50:06;54463.13;;;-143.77;84.24
13836;BME280;6988;52.614;13.500;2023-02-17T14:54:59;54475.44;;;-143.77;85.62
13836;BME280;6988;52.614;13.500;2023-02-17T14:59:51;54479.56;;;-143.77;86.10
13836;BME280;6988;52.614;13.500;2023-02-17T15:04:47;54471.34;;;-143.77;86.73
13836;BME280;6988;52.614;13.500;2023-02-17T15:09:39;54504.19;;;-143.77;86.75
13836;BME280;6988;52.614;13.500;2023-02-17T15:14:33;54524.69;;;-143.77;86.72
13836;BME280;6988;52.614;13.500;2023-02-17T15:19:25;54479.56;;;-143.77;86.50
13836;BME280;6988;52.614;13.500;2023-02-17T15:24:20;54489.81;;;-143.77;86.98
13836;BME280;6988;52.614;13.500;2023-02-17T15:29:15;54493.91;;;-143.77;87.51
13836;BME280;6988;52.614;13.500;2023-02-17T15:34:14;54528.78;;;-143.77;87.97
13836;BME280;6988;52.614;13.500;2023-02-17T15:39:09;54510.34;;;-143.77;88.25
13836;BME280;6988;52.614;13.500;2023-02-17T15:44:01;54500.06;;;-143.77;88.04
13836;BME280;6988;52.614;13.500;2023-02-17T15:48:53;54495.97;;;-143.77;87.70
13836;BME280;6988;52.614;13.500;2023-02-17T15:53:46;54475.44;;;-143.77;87.31
13836;BME280;6988;52.614;13.500;2023-02-17T15:58:38;54481.59;;;-143.77;87.30
13836;BME280;6988;52.614;13.500;2023-02-17T16:03:30;54504.19;;;-143.77;86.84
13836;BME280;6988;52.614;13.500;2023-02-17T16:08:22;54489.81;;;-143.77;86.42
13836;BME280;6988;52.614;13.500;2023-02-17T16:13:16;54471.34;;;-143.77;85.79
13836;BME280;6988;52.614;13.500;2023-02-17T16:18:19;54491.88;;;-143.77;85.03
13836;BME280;6988;52.614;13.500;2023-02-17T16:23:12;54491.88;;;-143.77;84.09
13836;BME280;6988;52.614;13.500;2023-02-17T16:28:09;54481.59;;;-143.77;83.36
13836;BME280;6988;52.614;13.500;2023-02-17T16:33:09;54510.34;;;-143.77;83.10
13836;BME280;6988;52.614;13.500;2023-02-17T16:38:06;54467.25;;;-143.77;82.91
13836;BME280;6988;52.614;13.500;2023-02-17T16:42:58;54471.34;;;-143.77;81.69
13836;BME280;6988;52.614;13.500;2023-02-17T16:47:54;54483.66;;;-143.77;79.84
13836;BME280;6988;52.614;13.500;2023-02-17T16:52:47;54512.38;;;-143.77;80.47
13836;BME280;6988;52.614;13.500;2023-02-17T16:57:41;54463.13;;;-143.77;80.32
13836;BME280;6988;52.614;13.500;2023-02-17T17:02:34;54512.38;;;-143.77;80.01
13836;BME280;6988;52.614;13.500;2023-02-17T17:07:27;54475.44;;;-143.77;79.23
13836;BME280;6988;52.614;13.500;2023-02-17T17:12:22;54495.97;;;-143.77;78.69
13836;BME280;6988;52.614;13.500;2023-02-17T17:17:14;54506.22;;;-143.77;78.06
13836;BME280;6988;52.614;13.500;2023-02-17T17:22:06;54489.81;;;-143.77;77.68
13836;BME280;6988;52.614;13.500;2023-02-17T17:26:58;54504.19;;;-143.77;77.00
13836;BME280;6988;52.614;13.500;2023-02-17T17:31:51;54491.88;;;-143.77;76.98
13836;BME280;6988;52.614;13.500;2023-02-17T17:36:45;54495.97;;;-143.77;75.90
13836;BME280;6988;52.614;13.500;2023-02-17T17:41:38;54446.72;;;-143.77;75.79
13836;BME280;6988;52.614;13.500;2023-02-17T17:46:33;54467.25;;;-143.77;75.07
13836;BME280;6988;52.614;13.500;2023-02-17T17:51:30;54459.03;;;-143.77;74.62
13836;BME280;6988;52.614;13.500;2023-02-17T17:56:26;54469.28;;;-143.77;74.70
13836;BME280;6988;52.614;13.500;2023-02-17T18:01:20;54471.34;;;-143.77;77.69
13836;BME280;6988;52.614;13.500;2023-02-17T18:06:17;54471.34;;;-143.77;80.42
13836;BME280;6988;52.614;13.500;2023-02-17T18:11:13;54510.34;;;-143.77;81.62
13836;BME280;6988;52.614;13.500;2023-02-17T18:16:06;54504.19;;;-143.77;82.26
13836;BME280;6988;52.614;13.500;2023-02-17T18:20:57;54508.28;;;-143.77;82.92
13836;BME280;6988;52.614;13.500;2023-02-17T18:25:49;54518.53;;;-143.77;83.35
13836;BME280;6988;52.614;13.500;2023-02-17T18:30:43;54573.94;;;-143.77;83.55
13836;BME280;6988;52.614;13.500;2023-02-17T18:35:36;54534.94;;;-143.77;83.34
13836;BME280;6988;52.614;13.500;2023-02-17T18:40:29;54557.53;;;-143.77;82.84
13836;BME280;6988;52.614;13.500;2023-02-17T18:45:21;54541.09;;;-143.77;82.05
13836;BME280;6988;52.614;13.500;2023-02-17T18:50:15;54569.84;;;-143.77;78.50
13836;BME280;6988;52.614;13.500;2023-02-17T18:55:07;54565.72;;;-143.77;76.39
13836;BME280;6988;52.614;13.500;2023-02-17T19:00:00;54571.88;;;-143.77;75.64
13836;BME280;6988;52.614;13.500;2023-02-17T19:04:53;54590.34;;;-143.77;71.54
13836;BME280;6988;52.614;13.500;2023-02-17T19:09:47;54582.16;;;-143.77;69.74
13836;BME280;6988;52.614;13.500;2023-02-17T19:14:41;54582.16;;;-143.77;67.03
13836;BME280;6988;52.614;13.500;2023-02-17T19:19:35;54557.53;;;-143.77;66.85
13836;BME280;6988;52.614;13.500;2023-02-17T19:24:27;54565.72;;;-143.77;65.96
13836;BME280;6988;52.614;13.500;2023-02-17T19:29:21;54606.78;;;-143.77;66.76
13836;BME280;6988;52.614;13.500;2023-02-17T19:34:13;54580.09;;;-143.77;65.45
13836;BME280;6988;52.614;13.500;2023-02-17T19:39:07;54610.88;;;-143.77;65.27
13836;BME280;6988;52.614;13.500;2023-02-17T19:43:58;54653.97;;;-143.77;64.96
13836;BME280;6988;52.614;13.500;2023-02-17T19:48:52;54584.19;;;-143.77;66.16
13836;BME280;6988;52.614;13.500;2023-02-17T19:53:43;54578.03;;;-143.77;65.47
13836;BME280;6988;52.614;13.500;2023-02-17T19:58:35;54598.56;;;-143.77;65.58
13836;BME280;6988;52.614;13.500;2023-02-17T20:03:27;54594.47;;;-143.77;65.09
13836;BME280;6988;52.614;13.500;2023-02-17T20:08:21;54602.66;;;-143.77;65.83
13836;BME280;6988;52.614;13.500;2023-02-17T20:13:13;54619.09;;;-143.77;66.96
13836;BME280;6988;52.614;13.500;2023-02-17T20:18:04;54641.66;;;-143.77;67.23
13836;BME280;6988;52.614;13.500;2023-02-17T20:22:56;54623.19;;;-143.77;66.18
13836;BME280;6988;52.614;13.500;2023-02-17T20:27:50;54623.19;;;-143.77;66.62
13836;BME280;6988;52.614;13.500;2023-02-17T20:32:42;54658.06;;;-143.77;66.25
13836;BME280;6988;52.614;13.500;2023-02-17T20:37:34;54608.81;;;-143.77;66.85
13836;BME280;6988;52.614;13.500;2023-02-17T20:42:26;54600.63;;;-143.77;66.23
13836;BME280;6988;52.614;13.500;2023-02-17T20:47:19;54614.97;;;-143.77;65.94
13836;BME280;6988;52.614;13.500;2023-02-17T20:52:11;54633.44;;;-143.77;66.22
13836;BME280;6988;52.614;13.500;2023-02-17T20:57:08;54606.78;;;-143.77;66.16
13836;BME280;6988;52.614;13.500;2023-02-17T21:02:01;54631.41;;;-143.77;66.25
13836;BME280;6988;52.614;13.500;2023-02-17T21:06:54;54637.56;;;-143.77;66.23
13836;BME280;6988;52.614;13.500;2023-02-17T21:11:46;54670.38;;;-143.77;66.99
13836;BME280;6988;52.614;13.500;2023-02-17T21:16:38;54670.38;;;-143.77;66.46
13836;BME280;6988;52.614;13.500;2023-02-17T21:21:31;54627.28;;;-143.77;66.62
13836;BME280;6988;52.614;13.500;2023-02-17T21:26:24;54664.22;;;-143.77;67.34
13836;BME280;6988;52.614;13.500;2023-02-17T21:31:17;54656.03;;;-143.77;66.87
13836;BME280;6988;52.614;13.500;2023-02-17T21:36:11;54633.44;;;-143.77;66.87
13836;BME280;6988;52.614;13.500;2023-02-17T21:41:05;54639.59;;;-143.77;66.76
13836;BME280;6988;52.614;13.500;2023-02-17T21:45:59;54672.44;;;-143.77;66.89
13836;BME280;6988;52.614;13.500;2023-02-17T21:51:02;54643.72;;;-143.77;67.07
13836;BME280;6988;52.614;13.500;2023-02-17T21:55:54;54666.28;;;-143.77;67.54
13836;BME280;6988;52.614;13.500;2023-02-17T22:00:47;54682.69;;;-143.77;67.45
13836;BME280;6988;52.614;13.500;2023-02-17T22:05:40;54674.50;;;-143.77;66.91
13836;BME280;6988;52.614;13.500;2023-02-17T22:10:36;54695.00;;;-143.77;66.94
13836;BME280;6988;52.614;13.500;2023-02-17T22:15:27;54678.59;;;-143.77;66.79
13836;BME280;6988;52.614;13.500;2023-02-17T22:20:20;54653.97;;;-143.77;66.33
13836;BME280;6988;52.614;13.500;2023-02-17T22:25:13;54674.50;;;-143.77;66.77
13836;BME280;6988;52.614;13.500;2023-02-17T22:30:06;54705.28;;;-143.77;66.60
13836;BME280;6988;52.614;13.500;2023-02-17T22:34:59;54662.19;;;-143.77;66.63
13836;BME280;6988;52.614;13.500;2023-02-17T22:39:51;54651.91;;;-143.77;66.24
13836;BME280;6988;52.614;13.500;2023-02-17T22:44:45;54676.53;;;-143.77;66.51
13836;BME280;6988;52.614;13.500;2023-02-17T23:04:39;54690.91;;;-143.77;67.54
13836;BME280;6988;52.614;13.500;2023-02-17T23:09:31;54697.06;;;-143.77;66.52
13836;BME280;6988;52.614;13.500;2023-02-17T23:14:25;54651.91;;;-143.77;66.54
13836;BME280;6988;52.614;13.500;2023-02-17T23:19:21;54688.84;;;-143.77;66.05
13836;BME280;6988;52.614;13.500;2023-02-17T23:24:16;54651.91;;;-143.77;66.65
13836;BME280;6988;52.614;13.500;2023-02-17T23:29:09;54692.97;;;-143.77;66.50
13836;BME280;6988;52.614;13.500;2023-02-17T23:34:00;54713.47;;;-143.77;66.56
13836;BME280;6988;52.614;13.500;2023-02-17T23:38:52;54688.84;;;-143.77;66.12
13836;BME280;6988;52.614;13.500;2023-02-17T23:43:46;54707.31;;;-143.77;66.85
13836;BME280;6988;52.614;13.500;2023-02-17T23:48:38;54658.06;;;-143.77;67.12
13836;BME280;6988;52.614;13.500;2023-02-17T23:53:31;54705.28;;;-143.77;66.93
13836;BME280;6988;52.614;13.500;2023-02-17T23:58:23;54672.44;;;-143.77;67.13
